Time;durP1;ratioP1;P1;durP2;ratioP2;P2;SDS_P1;SDS_P2;PMS_P1;PMS_P2;Temp;Humidity;BMP_temperature;BMP_pressure;BME280_temperature;BME280_humidity;BME280_pressure;Samples;Min_cycle;Max_cycle;Signal;HPM_P1;HPM_P2
2022/10/02 00:00:18;;;;;;;688.22;430.83;;;13.40;99.90;;;;;;5013266;28;20201;-76
2022/10/02 00:02:49;;;;;;;689.42;435.73;;;13.40;99.90;;;;;;5008748;28;20209;-76
2022/10/02 00:05:22;;;;;;;687.30;435.00;;;13.40;99.90;;;;;;5001900;28;20200;-76
2022/10/02 00:07:55;;;;;;;684.75;436.05;;;13.40;99.90;;;;;;5004579;28;20204;-75
2022/10/02 00:10:25;;;;;;;687.63;439.10;;;13.40;99.90;;;;;;5006632;28;20197;-75
2022/10/02 00:12:57;;;;;;;691.75;436.40;;;13.40;99.90;;;;;;5010256;28;20683;-77
2022/10/02 00:15:27;;;;;;;687.63;443.15;;;13.40;99.90;;;;;;5009272;28;20205;-75
2022/10/02 00:17:59;;;;;;;681.63;440.23;;;13.40;99.90;;;;;;5007909;28;20674;-74
2022/10/02 00:20:32;;;;;;;686.78;432.85;;;13.40;99.90;;;;;;5009583;28;20195;-76
2022/10/02 00:23:05;;;;;;;683.05;443.33;;;13.40;99.90;;;;;;5011490;28;20201;-77
2022/10/02 00:25:39;;;;;;;691.65;438.67;;;13.40;99.90;;;;;;5003399;28;20193;-78
2022/10/02 00:28:19;;;;;;;684.95;429.77;;;13.40;99.90;;;;;;5009263;28;20208;-81
2022/10/02 00:31:01;;;;;;;686.78;434.17;;;13.40;99.90;;;;;;5011183;28;20198;-76
2022/10/02 00:33:36;;;;;;;686.58;431.85;;;13.40;99.90;;;;;;5005997;28;20232;-83
2022/10/02 00:36:13;;;;;;;686.92;426.67;;;13.30;99.90;;;;;;5010224;28;20206;-77
2022/10/02 00:38:51;;;;;;;687.05;427.92;;;13.30;99.90;;;;;;5013793;28;20196;-76
2022/10/02 00:41:53;;;;;;;684.30;416.17;;;13.30;99.90;;;;;;5012758;28;20293;-78
2022/10/02 00:44:43;;;;;;;685.03;423.30;;;13.30;99.90;;;;;;5004377;28;20743;-75
2022/10/02 00:47:17;;;;;;;676.15;423.20;;;13.30;99.90;;;;;;5007928;28;20222;-74
2022/10/02 00:49:56;;;;;;;682.50;433.75;;;13.30;99.90;;;;;;5007874;28;20211;-76
2022/10/02 00:52:47;;;;;;;689.15;433.70;;;13.30;99.90;;;;;;5005699;28;20630;-75
2022/10/02 00:55:41;;;;;;;688.95;425.33;;;13.30;99.90;;;;;;4998030;28;20221;-76
2022/10/02 00:58:39;;;;;;;683.58;415.70;;;13.30;99.90;;;;;;5003844;28;20194;-75
2022/10/02 01:01:11;;;;;;;684.13;427.88;;;13.30;99.90;;;;;;5000905;28;20198;-75
2022/10/02 01:03:40;;;;;;;679.13;423.98;;;13.30;99.90;;;;;;5007761;28;20212;-75
2022/10/02 01:06:08;;;;;;;689.25;439.98;;;13.30;99.90;;;;;;5000174;28;20241;-78
2022/10/02 01:08:37;;;;;;;682.60;426.42;;;13.30;99.90;;;;;;5009418;28;20721;-74
2022/10/02 01:11:05;;;;;;;688.00;433.75;;;13.30;99.90;;;;;;5011401;28;20196;-76
2022/10/02 01:13:32;;;;;;;690.70;436.27;;;13.30;99.90;;;;;;5008163;28;20225;-78
2022/10/02 01:16:00;;;;;;;686.72;429.45;;;13.30;99.90;;;;;;5007396;28;20199;-74
2022/10/02 01:18:27;;;;;;;690.63;438.73;;;13.30;99.90;;;;;;5008459;28;20281;-73
2022/10/02 01:20:59;;;;;;;688.30;438.42;;;13.30;99.90;;;;;;5002744;28;20194;-76
2022/10/02 01:23:31;;;;;;;691.05;434.25;;;13.30;99.90;;;;;;5008248;28;20213;-75
2022/10/02 01:26:00;;;;;;;687.95;430.92;;;13.30;99.90;;;;;;5004322;28;20559;-75
2022/10/02 01:28:27;;;;;;;689.58;433.58;;;13.30;99.90;;;;;;5008702;28;20232;-75
2022/10/02 01:30:57;;;;;;;690.25;433.70;;;13.30;99.90;;;;;;5007763;28;20200;-76
2022/10/02 01:33:24;;;;;;;688.97;442.60;;;13.30;99.90;;;;;;5009669;28;20230;-76
2022/10/02 01:35:50;;;;;;;689.45;428.73;;;13.40;99.90;;;;;;5006456;28;20210;-74
2022/10/02 01:38:20;;;;;;;689.35;436.75;;;13.40;99.90;;;;;;5010349;28;20198;-76
2022/10/02 01:40:47;;;;;;;689.88;440.20;;;13.40;99.90;;;;;;5009496;28;20226;-75
2022/10/02 01:43:19;;;;;;;689.20;439.33;;;13.30;99.90;;;;;;5008856;28;20333;-76
2022/10/02 01:45:57;;;;;;;686.03;425.42;;;13.40;99.90;;;;;;5007359;28;20579;-76
2022/10/02 01:48:40;;;;;;;689.72;436.70;;;13.40;99.90;;;;;;5007690;28;20209;-76
2022/10/02 01:51:33;;;;;;;687.60;429.02;;;13.40;99.90;;;;;;5001825;28;20666;-76
2022/10/02 01:54:12;;;;;;;687.45;432.83;;;13.40;99.90;;;;;;4999994;28;20230;-77
2022/10/02 01:56:47;;;;;;;684.97;424.70;;;13.40;99.90;;;;;;5007062;28;20201;-76
2022/10/02 01:59:23;;;;;;;682.53;393.23;;;13.40;99.90;;;;;;5009736;28;20199;-77
2022/10/02 02:01:57;;;;;;;686.45;428.25;;;13.40;99.90;;;;;;5011394;28;20720;-82
2022/10/02 02:04:27;;;;;;;686.00;429.42;;;13.40;99.90;;;;;;5005834;28;20203;-74
2022/10/02 02:07:02;;;;;;;688.00;428.17;;;13.40;99.90;;;;;;5007558;28;20385;-75
2022/10/02 02:09:35;;;;;;;689.78;416.75;;;13.40;99.90;;;;;;5009398;28;20199;-76
2022/10/02 02:12:09;;;;;;;688.53;420.08;;;13.40;99.90;;;;;;5008183;28;20201;-75
2022/10/02 02:14:42;;;;;;;690.03;431.67;;;13.30;99.90;;;;;;5007052;28;20224;-78
2022/10/02 02:17:14;;;;;;;685.67;420.40;;;13.40;99.90;;;;;;5008743;28;20222;-75
2022/10/02 02:19:46;;;;;;;685.25;432.08;;;13.30;99.90;;;;;;5004596;28;20609;-76
2022/10/02 02:22:19;;;;;;;684.17;422.90;;;13.40;99.90;;;;;;5009008;28;20556;-75
2022/10/02 02:24:51;;;;;;;690.03;437.65;;;13.40;99.90;;;;;;5003968;28;20200;-73
2022/10/02 02:27:22;;;;;;;695.65;442.15;;;13.30;99.90;;;;;;5003844;28;20757;-74
2022/10/02 02:29:54;;;;;;;689.70;419.73;;;13.40;99.90;;;;;;5005616;28;20204;-76
2022/10/02 02:32:25;;;;;;;687.85;427.48;;;13.40;99.90;;;;;;5006266;28;20203;-76
2022/10/02 02:34:56;;;;;;;687.00;420.88;;;13.40;99.90;;;;;;5002943;28;20218;-74
2022/10/02 02:37:27;;;;;;;683.17;407.13;;;13.40;99.90;;;;;;5005558;28;20203;-74
2022/10/02 02:39:58;;;;;;;689.13;427.48;;;13.40;99.90;;;;;;5008853;28;20209;-74
2022/10/02 02:42:29;;;;;;;690.33;431.90;;;13.40;99.90;;;;;;4996858;28;20199;-73
2022/10/02 02:45:00;;;;;;;686.72;422.95;;;13.40;99.90;;;;;;4999416;28;20207;-74
2022/10/02 02:47:32;;;;;;;687.28;440.98;;;13.40;99.90;;;;;;5007634;28;20208;-76
2022/10/02 02:50:03;;;;;;;685.65;403.65;;;13.40;99.90;;;;;;5003055;28;20268;-76
2022/10/02 02:52:33;;;;;;;691.63;441.45;;;13.40;99.90;;;;;;5003034;28;20207;-74
2022/10/02 02:55:05;;;;;;;683.85;421.17;;;13.40;99.90;;;;;;5001891;28;20223;-74
2022/10/02 02:57:37;;;;;;;687.28;435.42;;;13.40;99.90;;;;;;5008874;28;20253;-79
2022/10/02 03:00:07;;;;;;;673.80;432.63;;;13.40;99.90;;;;;;5009639;28;20199;-75
2022/10/02 03:02:34;;;;;;;677.42;448.30;;;13.40;99.90;;;;;;5006775;28;20199;-74
2022/10/02 03:05:00;;;;;;;679.78;452.45;;;13.40;99.90;;;;;;4998310;28;20200;-76
2022/10/02 03:07:27;;;;;;;674.45;447.13;;;13.40;99.90;;;;;;5008370;28;20307;-76
2022/10/02 03:10:14;;;;;;;675.05;449.02;;;13.40;99.90;;;;;;5005356;28;20211;-75
2022/10/02 03:12:53;;;;;;;670.45;419.35;;;13.40;99.90;;;;;;4998650;28;20197;-74
2022/10/02 03:15:28;;;;;;;676.72;441.90;;;13.40;99.90;;;;;;5006559;28;20227;-75
2022/10/02 03:18:13;;;;;;;690.58;437.35;;;13.40;99.90;;;;;;5002826;28;20221;-75
2022/10/02 03:20:49;;;;;;;682.92;411.75;;;13.40;99.90;;;;;;4998684;28;20602;-76
2022/10/02 03:23:22;;;;;;;687.88;424.25;;;13.40;99.90;;;;;;4995719;28;20225;-76
2022/10/02 03:25:54;;;;;;;695.05;440.20;;;13.40;99.90;;;;;;5008116;28;20713;-74
2022/10/02 03:28:25;;;;;;;689.33;431.73;;;13.40;99.90;;;;;;5004539;28;20291;-74
2022/10/02 03:30:55;;;;;;;686.30;413.60;;;13.40;99.90;;;;;;5004413;28;20191;-74
2022/10/02 03:33:23;;;;;;;690.20;434.02;;;13.40;99.90;;;;;;5009808;28;20563;-76
2022/10/02 03:35:50;;;;;;;692.67;439.00;;;13.40;99.90;;;;;;5003139;28;20929;-73
2022/10/02 03:38:18;;;;;;;689.78;438.70;;;13.40;99.90;;;;;;5009102;28;20205;-73
2022/10/02 03:40:45;;;;;;;687.25;429.58;;;13.40;99.90;;;;;;5004414;28;20277;-73
2022/10/02 03:43:20;;;;;;;687.75;434.65;;;13.40;99.90;;;;;;5004424;28;20654;-75
2022/10/02 03:45:46;;;;;;;687.85;431.60;;;13.40;99.90;;;;;;5004450;28;20201;-74
2022/10/02 03:48:15;;;;;;;690.83;443.98;;;13.40;99.90;;;;;;5005617;28;20638;-74
2022/10/02 03:50:42;;;;;;;687.08;408.33;;;13.40;99.90;;;;;;5009061;28;20665;-77
2022/10/02 03:53:13;;;;;;;689.35;438.23;;;13.40;99.90;;;;;;5003953;28;20203;-75
2022/10/02 03:55:43;;;;;;;681.83;413.88;;;13.40;99.90;;;;;;5005477;28;20224;-73
2022/10/02 03:58:14;;;;;;;685.45;434.40;;;13.40;99.90;;;;;;5006228;28;20210;-75
2022/10/02 04:00:45;;;;;;;688.80;434.23;;;13.40;99.90;;;;;;5002626;28;20197;-75
2022/10/02 04:03:19;;;;;;;688.22;449.05;;;13.40;99.90;;;;;;5002922;28;20205;-74
2022/10/02 04:05:49;;;;;;;687.40;430.38;;;13.40;99.90;;;;;;5008606;28;20205;-74
2022/10/02 04:08:19;;;;;;;690.33;445.48;;;13.40;99.90;;;;;;5006443;28;20263;-76
2022/10/02 04:10:53;;;;;;;685.55;421.63;;;13.40;99.90;;;;;;5006914;28;20250;-75
2022/10/02 04:13:27;;;;;;;688.72;425.02;;;13.50;99.90;;;;;;5005593;28;20201;-75
2022/10/02 04:16:01;;;;;;;686.22;422.90;;;13.50;99.90;;;;;;5006789;28;20568;-76
2022/10/02 04:18:36;;;;;;;690.58;444.83;;;13.50;99.90;;;;;;5003500;28;20270;-75
2022/10/02 04:21:09;;;;;;;687.53;423.35;;;13.50;99.90;;;;;;4996873;28;20323;-82
2022/10/02 04:23:43;;;;;;;692.97;448.90;;;13.50;99.90;;;;;;4999028;28;20198;-75
2022/10/02 04:26:16;;;;;;;690.60;433.58;;;13.50;99.90;;;;;;5002733;28;20280;-76
2022/10/02 04:28:51;;;;;;;695.33;432.02;;;13.50;99.90;;;;;;5000847;28;20202;-76
2022/10/02 04:31:17;;;;;;;691.63;436.17;;;13.40;99.90;;;;;;5006281;28;20590;-78
2022/10/02 04:33:45;;;;;;;688.90;444.90;;;13.40;99.90;;;;;;5004564;28;20267;-76
2022/10/02 04:36:28;;;;;;;685.92;414.63;;;13.50;99.90;;;;;;5009248;28;20196;-75
2022/10/02 04:39:13;;;;;;;689.65;434.48;;;13.40;99.90;;;;;;5004941;28;20210;-75
2022/10/02 04:41:57;;;;;;;685.83;432.38;;;13.50;99.90;;;;;;5008578;28;20199;-74
2022/10/02 04:44:41;;;;;;;689.58;436.75;;;13.50;99.90;;;;;;5010052;28;20206;-77
2022/10/02 04:47:37;;;;;;;688.47;429.40;;;13.50;99.90;;;;;;5005421;28;20193;-77
2022/10/02 04:50:37;;;;;;;688.30;422.95;;;13.50;99.90;;;;;;5004896;28;20197;-77
2022/10/02 04:53:19;;;;;;;684.53;421.27;;;13.50;99.90;;;;;;5011255;28;20224;-76
2022/10/02 04:56:08;;;;;;;686.15;433.25;;;13.50;99.90;;;;;;5009618;28;20206;-76
2022/10/02 04:58:55;;;;;;;688.58;424.15;;;13.50;99.90;;;;;;5006804;28;20199;-77
2022/10/02 05:01:32;;;;;;;690.42;437.02;;;13.50;99.90;;;;;;4994306;28;20611;-78
2022/10/02 05:04:20;;;;;;;688.10;425.40;;;13.50;99.90;;;;;;5005086;28;20190;-74
2022/10/02 05:07:07;;;;;;;688.92;432.40;;;13.50;99.90;;;;;;5006563;28;20198;-77
2022/10/02 05:09:41;;;;;;;688.50;434.45;;;13.50;99.90;;;;;;5009151;28;20193;-78
2022/10/02 05:12:25;;;;;;;689.47;440.17;;;13.50;99.90;;;;;;5008750;28;20219;-75
2022/10/02 05:15:24;;;;;;;688.25;433.75;;;13.50;99.90;;;;;;5007811;28;20217;-75
2022/10/02 05:18:07;;;;;;;686.35;412.60;;;13.50;99.90;;;;;;4998493;28;20299;-76
2022/10/02 05:21:02;;;;;;;690.30;438.35;;;13.50;99.90;;;;;;5008892;28;20281;-77
2022/10/02 05:23:46;;;;;;;694.75;435.98;;;13.50;99.90;;;;;;5011135;28;20202;-75
2022/10/02 05:26:41;;;;;;;689.78;436.58;;;13.50;99.90;;;;;;5009009;28;20200;-77
2022/10/02 05:29:36;;;;;;;693.10;441.88;;;13.50;99.90;;;;;;5002130;28;20200;-76
2022/10/02 05:32:19;;;;;;;689.35;442.38;;;13.50;99.90;;;;;;5002761;28;20203;-75
2022/10/02 05:35:05;;;;;;;687.47;439.52;;;13.50;99.90;;;;;;5006972;28;20277;-76
2022/10/02 05:37:45;;;;;;;685.97;446.60;;;13.50;99.90;;;;;;5007981;28;20656;-78
2022/10/02 05:40:19;;;;;;;688.85;443.80;;;13.50;99.90;;;;;;5006847;28;20197;-77
2022/10/02 05:42:52;;;;;;;692.95;442.20;;;13.50;99.90;;;;;;5009669;28;20214;-77
2022/10/02 05:45:26;;;;;;;687.78;452.00;;;13.50;99.90;;;;;;5009604;28;20213;-75
2022/10/02 05:48:01;;;;;;;686.17;446.75;;;13.50;99.90;;;;;;4994911;28;20677;-75
2022/10/02 05:50:33;;;;;;;687.83;450.15;;;13.50;99.90;;;;;;5005860;28;20205;-75
2022/10/02 05:53:04;;;;;;;686.97;451.20;;;13.50;99.90;;;;;;5006427;28;20199;-75
2022/10/02 05:55:37;;;;;;;691.00;442.75;;;13.60;99.90;;;;;;5006823;28;20253;-75
2022/10/02 05:58:11;;;;;;;689.75;444.92;;;13.50;99.90;;;;;;4998879;28;20199;-77
2022/10/02 06:00:43;;;;;;;681.28;439.52;;;13.60;99.90;;;;;;5003076;28;20227;-75
2022/10/02 06:03:16;;;;;;;691.83;451.65;;;13.60;99.90;;;;;;5006111;28;20198;-81
2022/10/02 06:05:49;;;;;;;688.10;442.20;;;13.60;99.90;;;;;;5007862;28;20646;-76
2022/10/02 06:08:20;;;;;;;676.10;451.27;;;13.60;99.90;;;;;;5000308;28;20200;-74
2022/10/02 06:10:50;;;;;;;677.60;450.75;;;13.60;99.90;;;;;;5007375;28;20204;-77
2022/10/02 06:13:23;;;;;;;681.70;442.20;;;13.60;99.90;;;;;;5010656;28;20210;-76
2022/10/02 06:15:52;;;;;;;696.35;451.77;;;13.60;99.90;;;;;;5009478;28;20228;-75
2022/10/02 06:18:22;;;;;;;689.97;444.02;;;13.60;99.90;;;;;;4999736;28;20677;-75
2022/10/02 06:20:53;;;;;;;686.85;434.17;;;13.60;99.90;;;;;;5006694;28;20203;-75
2022/10/02 06:23:24;;;;;;;686.60;453.42;;;13.60;99.90;;;;;;5010023;28;20204;-80
2022/10/02 06:25:55;;;;;;;684.33;421.92;;;13.60;99.90;;;;;;5002665;28;20199;-76
2022/10/02 06:28:28;;;;;;;682.97;421.98;;;13.60;99.90;;;;;;5003058;28;20235;-75
2022/10/02 06:31:01;;;;;;;689.75;444.02;;;13.60;99.90;;;;;;5009266;28;20196;-76
2022/10/02 06:33:32;;;;;;;693.75;455.10;;;13.60;99.90;;;;;;5006341;28;20218;-75
2022/10/02 06:36:33;;;;;;;688.85;445.05;;;13.70;99.90;;;;;;5004843;28;20615;-75
2022/10/02 06:39:13;;;;;;;686.35;441.23;;;13.70;99.90;;;;;;5007088;28;20575;-75
2022/10/02 06:41:50;;;;;;;687.97;440.52;;;13.70;99.90;;;;;;5006064;28;20677;-76
2022/10/02 06:44:22;;;;;;;686.20;439.40;;;13.60;99.90;;;;;;5008865;28;20633;-79
2022/10/02 06:47:03;;;;;;;690.53;453.63;;;13.60;99.90;;;;;;4994213;28;20212;-74
2022/10/02 06:49:42;;;;;;;685.55;450.27;;;13.70;99.90;;;;;;5004496;28;20197;-75
2022/10/02 06:52:22;;;;;;;689.05;441.80;;;13.70;99.90;;;;;;5003071;28;20202;-77
2022/10/02 06:55:00;;;;;;;689.75;441.60;;;13.80;99.90;;;;;;5001574;28;20707;-79
2022/10/02 06:57:47;;;;;;;695.13;455.10;;;13.70;99.90;;;;;;5005575;28;20247;-76
2022/10/02 07:00:18;;;;;;;688.83;440.67;;;13.80;99.90;;;;;;5007960;28;20200;-77
2022/10/02 07:03:30;;;;;;;693.80;464.63;;;13.80;99.90;;;;;;4997000;28;20215;-76
2022/10/02 07:06:19;;;;;;;691.60;445.38;;;13.90;99.90;;;;;;4977589;28;20198;-80
2022/10/02 07:09:19;;;;;;;689.92;446.35;;;13.90;99.90;;;;;;5001524;28;20218;-78
2022/10/02 07:11:54;;;;;;;685.75;457.13;;;13.90;99.90;;;;;;5002208;28;20718;-77
2022/10/02 07:14:39;;;;;;;691.53;461.40;;;13.90;99.90;;;;;;5007742;28;20537;-79
2022/10/02 07:17:17;;;;;;;689.95;439.33;;;14.00;99.90;;;;;;5003390;28;20220;-82
2022/10/02 07:19:58;;;;;;;693.55;457.35;;;14.00;99.90;;;;;;5002370;28;20196;-76
2022/10/02 07:22:38;;;;;;;690.38;445.98;;;14.00;99.90;;;;;;5008742;28;20291;-78
2022/10/02 07:25:29;;;;;;;689.22;432.98;;;14.10;99.90;;;;;;5000906;28;20200;-80
2022/10/02 07:28:05;;;;;;;697.00;471.50;;;14.20;99.90;;;;;;4992966;28;20208;-79
2022/10/02 07:30:44;;;;;;;698.85;473.80;;;14.20;99.90;;;;;;5006222;28;20704;-80
2022/10/02 07:33:19;;;;;;;693.22;462.80;;;14.30;99.90;;;;;;5005217;28;20547;-76
2022/10/02 07:35:53;;;;;;;699.30;490.40;;;14.30;99.90;;;;;;5007944;28;20227;-79
2022/10/02 07:38:44;;;;;;;691.42;452.30;;;14.40;99.90;;;;;;5009347;28;20193;-78
2022/10/02 07:41:21;;;;;;;699.65;491.08;;;14.40;99.90;;;;;;5000518;28;20246;-81
2022/10/02 07:43:56;;;;;;;698.50;485.45;;;14.40;99.90;;;;;;5003750;28;20203;-78
2022/10/02 07:46:34;;;;;;;701.08;493.02;;;14.40;99.90;;;;;;5006125;28;20208;-77
2022/10/02 07:49:24;;;;;;;692.08;448.55;;;14.40;99.90;;;;;;5006400;28;20598;-76
2022/10/02 07:51:57;;;;;;;700.00;490.23;;;14.30;99.90;;;;;;5008115;28;20196;-77
2022/10/02 07:54:56;;;;;;;698.15;469.63;;;14.40;99.90;;;;;;5006127;28;20604;-78
2022/10/02 07:57:30;;;;;;;695.95;474.05;;;14.30;99.90;;;;;;5003394;28;20200;-83
2022/10/02 08:00:04;;;;;;;690.85;489.15;;;14.30;99.90;;;;;;5004286;28;20196;-77
2022/10/02 08:02:39;;;;;;;692.53;495.90;;;14.30;99.90;;;;;;5002936;28;20193;-76
2022/10/02 08:05:15;;;;;;;689.30;490.02;;;14.30;99.90;;;;;;5005912;28;20234;-76
2022/10/02 08:07:45;;;;;;;686.38;484.15;;;14.30;99.90;;;;;;5010217;28;20200;-81
2022/10/02 08:10:15;;;;;;;687.72;494.20;;;14.30;99.90;;;;;;5006155;28;20211;-77
2022/10/02 08:12:49;;;;;;;686.47;496.02;;;14.30;99.90;;;;;;5007808;28;20204;-78
2022/10/02 08:15:21;;;;;;;687.33;480.00;;;14.50;99.90;;;;;;5010389;28;20226;-80
2022/10/02 08:17:52;;;;;;;691.05;501.17;;;14.50;99.90;;;;;;5011591;28;20220;-77
2022/10/02 08:20:26;;;;;;;694.95;505.98;;;14.60;99.90;;;;;;5010126;28;20204;-77
2022/10/02 08:22:59;;;;;;;694.58;513.42;;;14.70;99.90;;;;;;5009782;28;20200;-76
2022/10/02 08:25:29;;;;;;;690.55;509.63;;;14.70;99.90;;;;;;5005236;28;20204;-75
2022/10/02 08:28:01;;;;;;;692.78;491.27;;;14.70;99.90;;;;;;5005044;28;20212;-74
2022/10/02 08:30:28;;;;;;;636.83;514.53;;;14.70;99.90;;;;;;5014744;28;20599;-74
2022/10/02 08:32:56;;;;;;;646.25;521.20;;;14.70;99.90;;;;;;5004988;28;20571;-76
2022/10/02 08:35:33;;;;;;;662.45;517.33;;;14.70;99.90;;;;;;5003107;28;20217;-75
2022/10/02 08:38:14;;;;;;;678.40;504.33;;;14.70;99.90;;;;;;5005733;28;20195;-75
2022/10/02 08:41:15;;;;;;;693.08;502.63;;;14.70;99.90;;;;;;5008952;28;20193;-75
2022/10/02 08:44:10;;;;;;;697.35;500.65;;;14.70;99.90;;;;;;5004338;28;20256;-74
2022/10/02 08:46:57;;;;;;;697.28;501.35;;;14.70;99.90;;;;;;5001396;28;20196;-75
2022/10/02 08:50:02;;;;;;;695.22;505.73;;;14.70;99.90;;;;;;5002395;28;20192;-75
2022/10/02 08:52:50;;;;;;;671.90;499.23;;;14.70;99.90;;;;;;5009044;28;20223;-82
2022/10/02 08:55:45;;;;;;;695.58;484.42;;;14.70;99.90;;;;;;5003992;28;20273;-75
2022/10/02 08:58:51;;;;;;;652.58;501.60;;;14.70;99.90;;;;;;4996339;28;20513;-76
2022/10/02 09:01:47;;;;;;;644.63;496.25;;;14.70;99.90;;;;;;4999360;28;20243;-75
2022/10/02 09:04:58;;;;;;;643.35;484.55;;;14.70;99.90;;;;;;5001609;28;20200;-76
2022/10/02 09:08:11;;;;;;;649.65;500.38;;;14.70;99.90;;;;;;4997062;28;20655;-75
2022/10/02 09:11:18;;;;;;;683.42;493.85;;;14.70;99.90;;;;;;4991362;28;20242;-76
2022/10/02 09:14:18;;;;;;;689.70;474.02;;;14.80;99.90;;;;;;4995306;28;20267;-80
2022/10/02 09:17:07;;;;;;;692.63;486.50;;;14.80;99.90;;;;;;4991808;28;20250;-76
2022/10/02 09:19:46;;;;;;;691.17;502.20;;;14.80;99.90;;;;;;5007614;28;20205;-78
2022/10/02 09:22:36;;;;;;;699.05;510.13;;;14.80;99.90;;;;;;5001875;28;20204;-77
2022/10/02 09:25:21;;;;;;;705.33;524.65;;;14.90;99.90;;;;;;5000559;28;20196;-76
2022/10/02 09:28:26;;;;;;;693.05;506.25;;;14.90;99.90;;;;;;4999498;28;20231;-79
2022/10/02 09:31:30;;;;;;;675.70;508.33;;;14.90;99.90;;;;;;5007042;28;20587;-77
2022/10/02 09:34:35;;;;;;;698.38;506.02;;;15.00;99.90;;;;;;5007986;28;20559;-80
2022/10/02 09:37:29;;;;;;;579.42;493.55;;;15.00;99.90;;;;;;4998469;28;20230;-79
2022/10/02 09:40:25;;;;;;;648.15;519.20;;;15.00;99.90;;;;;;5007150;28;20197;-77
2022/10/02 09:43:20;;;;;;;575.55;513.38;;;15.00;99.90;;;;;;5010129;28;20199;-79
2022/10/02 09:46:21;;;;;;;662.55;539.22;;;15.00;99.90;;;;;;4989624;28;20204;-77
2022/10/02 09:49:25;;;;;;;656.95;526.67;;;15.00;99.90;;;;;;4997407;28;20189;-76
2022/10/02 09:52:23;;;;;;;663.67;536.83;;;15.10;99.90;;;;;;5007463;28;20203;-78
2022/10/02 09:55:12;;;;;;;667.28;517.90;;;15.00;99.90;;;;;;5004607;28;20262;-79
2022/10/02 09:58:22;;;;;;;695.20;529.35;;;15.10;99.90;;;;;;5004548;28;20228;-76
2022/10/02 10:01:28;;;;;;;696.40;521.30;;;15.10;99.90;;;;;;4963782;28;20197;-77
2022/10/02 10:04:37;;;;;;;674.97;492.35;;;15.10;99.90;;;;;;5005206;28;20196;-80
2022/10/02 10:07:24;;;;;;;610.00;513.00;;;15.10;99.90;;;;;;5006758;28;20702;-78
2022/10/02 10:10:25;;;;;;;631.10;521.05;;;15.10;99.90;;;;;;5005187;28;20200;-76
2022/10/02 10:13:23;;;;;;;653.42;528.15;;;15.10;99.90;;;;;;5006435;28;20192;-77
2022/10/02 10:16:29;;;;;;;656.42;529.40;;;15.10;99.90;;;;;;4986090;28;20614;-76
2022/10/02 10:19:33;;;;;;;653.50;530.72;;;15.10;99.90;;;;;;4997119;28;20264;-77
2022/10/02 10:22:50;;;;;;;658.53;537.75;;;15.10;99.90;;;;;;5004942;28;20196;-76
2022/10/02 10:25:50;;;;;;;657.80;538.83;;;15.20;99.90;;;;;;5008762;28;20259;-77
2022/10/02 10:28:54;;;;;;;659.00;538.55;;;15.30;99.90;;;;;;5006260;28;20205;-78
2022/10/02 10:31:54;;;;;;;659.15;545.08;;;15.30;99.90;;;;;;5003783;28;20250;-81
2022/10/02 10:34:56;;;;;;;662.15;540.63;;;15.40;99.90;;;;;;5004209;28;20242;-83
2022/10/02 10:40:52;;;;;;;663.90;544.55;;;15.40;99.90;;;;;;5002527;28;20208;-76
2022/10/02 10:43:54;;;;;;;663.58;558.35;;;15.40;99.90;;;;;;4999848;28;20204;-76
2022/10/02 10:46:36;;;;;;;679.90;576.60;;;15.40;99.90;;;;;;4983254;28;20196;-82
2022/10/02 10:49:20;;;;;;;659.78;557.28;;;15.40;99.90;;;;;;4981802;28;20290;-86
2022/10/02 10:51:53;;;;;;;658.72;552.00;;;15.40;99.90;;;;;;5003367;28;20203;-76
2022/10/02 10:54:56;;;;;;;656.92;549.38;;;15.40;99.90;;;;;;5004809;28;20200;-81
2022/10/02 10:57:38;;;;;;;651.05;550.08;;;15.50;99.90;;;;;;4995591;28;20224;-82
2022/10/02 11:00:19;;;;;;;653.33;557.08;;;15.50;99.90;;;;;;5004756;28;20197;-78
2022/10/02 11:03:07;;;;;;;663.58;579.05;;;15.50;99.90;;;;;;4999409;28;20559;-77
2022/10/02 11:06:12;;;;;;;651.13;539.22;;;15.50;99.90;;;;;;5001143;28;20192;-79
2022/10/02 11:09:09;;;;;;;657.28;554.42;;;15.50;99.90;;;;;;5003431;28;20200;-76
2022/10/02 11:11:44;;;;;;;657.83;535.15;;;15.50;99.90;;;;;;5008351;28;20231;-78
2022/10/02 11:14:25;;;;;;;658.60;557.03;;;15.50;99.90;;;;;;5007089;28;20574;-76
2022/10/02 11:17:15;;;;;;;658.88;543.65;;;15.50;99.90;;;;;;5007634;28;20731;-76
2022/10/02 11:19:53;;;;;;;661.97;545.65;;;15.50;99.90;;;;;;5002093;28;20196;-79
2022/10/02 11:22:52;;;;;;;663.45;548.88;;;15.50;99.90;;;;;;5007796;28;20204;-77
2022/10/02 11:25:39;;;;;;;665.28;558.80;;;15.60;99.90;;;;;;5001491;28;20200;-76
2022/10/02 11:28:33;;;;;;;665.80;559.13;;;15.60;99.90;;;;;;5000208;28;20204;-75
2022/10/02 11:31:16;;;;;;;663.75;539.88;;;15.60;99.90;;;;;;5004853;28;20192;-74
2022/10/02 11:34:08;;;;;;;677.80;562.40;;;15.60;99.90;;;;;;5006929;28;20192;-76
2022/10/02 11:36:51;;;;;;;681.70;558.25;;;15.60;99.90;;;;;;5002649;28;20274;-81
2022/10/02 11:39:46;;;;;;;694.25;543.22;;;15.60;99.90;;;;;;5000363;28;20564;-81
2022/10/02 11:42:33;;;;;;;678.53;554.55;;;15.60;99.90;;;;;;4988609;28;20227;-75
2022/10/02 11:45:33;;;;;;;688.85;553.42;;;15.60;99.90;;;;;;5009124;28;20227;-80
2022/10/02 11:48:18;;;;;;;686.58;564.97;;;15.70;99.90;;;;;;5000992;28;20193;-77
2022/10/02 11:51:12;;;;;;;708.10;552.13;;;15.70;99.90;;;;;;5001040;28;20207;-75
2022/10/02 11:53:53;;;;;;;718.83;557.00;;;15.70;99.90;;;;;;5007665;28;20243;-78
2022/10/02 11:56:38;;;;;;;711.67;554.92;;;15.70;99.90;;;;;;5011998;28;20239;-74
2022/10/02 11:59:23;;;;;;;712.53;565.13;;;15.70;99.90;;;;;;5002537;28;20207;-76
2022/10/02 12:01:54;;;;;;;709.85;566.55;;;15.70;99.90;;;;;;5003626;28;20201;-77
2022/10/02 12:04:38;;;;;;;712.72;554.67;;;15.70;99.90;;;;;;5006813;28;20298;-77
2022/10/02 12:07:18;;;;;;;712.22;555.92;;;15.70;99.90;;;;;;5013881;28;20200;-77
2022/10/02 12:10:00;;;;;;;714.70;557.15;;;15.70;99.90;;;;;;4999676;28;20204;-76
2022/10/02 12:12:40;;;;;;;701.92;538.97;;;15.70;99.90;;;;;;5004757;28;20217;-77
2022/10/02 12:15:20;;;;;;;677.08;568.20;;;15.70;99.90;;;;;;5009659;28;20192;-77
2022/10/02 12:18:00;;;;;;;673.92;567.60;;;15.70;99.90;;;;;;5002969;28;20759;-77
2022/10/02 12:29:46;;;;;;;687.53;557.05;;;15.70;99.90;;;;;;4999024;28;20202;-78
2022/10/02 12:32:27;;;;;;;694.60;569.28;;;15.70;99.90;;;;;;5003855;28;20255;-79
2022/10/02 12:35:06;;;;;;;712.20;570.72;;;15.70;99.90;;;;;;4998743;28;20203;-76
2022/10/02 12:37:41;;;;;;;715.28;557.88;;;15.70;99.90;;;;;;5005392;28;20718;-77
2022/10/02 12:40:18;;;;;;;707.53;528.17;;;15.70;99.90;;;;;;5002328;28;20195;-77
2022/10/02 12:43:18;;;;;;;708.90;548.30;;;15.70;99.90;;;;;;5003979;28;20729;-77
2022/10/02 12:46:13;;;;;;;715.75;562.05;;;15.80;99.90;;;;;;5011087;28;20938;-79
2022/10/02 12:48:56;;;;;;;703.20;555.63;;;15.70;99.90;;;;;;5009090;28;20193;-76
2022/10/02 12:51:34;;;;;;;711.50;558.85;;;15.70;99.90;;;;;;5010487;28;20212;-77
2022/10/02 12:54:55;;;;;;;705.63;538.15;;;15.70;99.90;;;;;;5012716;28;20290;-78
2022/10/02 12:57:54;;;;;;;696.13;552.83;;;15.70;99.90;;;;;;4963469;28;20222;-76
2022/10/02 13:00:24;;;;;;;709.10;542.28;;;15.80;99.90;;;;;;4955186;28;20709;-78
2022/10/02 13:03:30;;;;;;;706.97;529.63;;;15.80;99.90;;;;;;5000619;28;20207;-79
2022/10/02 13:06:40;;;;;;;710.67;560.90;;;15.80;99.90;;;;;;5008267;28;20602;-78
2022/10/02 13:09:34;;;;;;;700.35;548.72;;;15.80;99.90;;;;;;5007332;28;20231;-80
2022/10/02 13:12:26;;;;;;;705.75;555.95;;;15.80;99.90;;;;;;5013116;28;20200;-79
2022/10/02 13:15:17;;;;;;;708.65;565.80;;;15.80;99.90;;;;;;5004655;28;20204;-80
2022/10/02 13:17:51;;;;;;;713.78;559.95;;;15.90;99.90;;;;;;5004067;28;20223;-77
2022/10/02 13:20:26;;;;;;;710.80;565.55;;;15.80;99.90;;;;;;5000844;28;20195;-77
2022/10/02 13:23:02;;;;;;;711.05;568.38;;;15.90;99.90;;;;;;5006199;28;20250;-76
2022/10/02 13:25:37;;;;;;;701.50;554.20;;;15.90;99.90;;;;;;5006684;28;20211;-76
2022/10/02 13:28:32;;;;;;;715.53;578.35;;;15.90;99.90;;;;;;5002656;28;20574;-77